Terminal Aerodrome Forecast
Issued by NWS

Home | Current Version | Previous Version | Text Only | Print | Product List | Glossary On
Versions: 1 2 3 4 5 6 7 8 9 10 11 12
767
FTUS46 KSEW 262323
TAFBFI
TAF
KBFI 262323Z 2700/2724 29006KT P6SM FEW050 SCT250
     FM270500 21003KT P6SM BKN250
     FM271100 18006KT P6SM OVC013
     FM271900 20006KT P6SM SCT025 BKN050
     FM272100 23006KT P6SM SCT050=

USA.gov is the U.S. government's official web portal to all federal, state and local government web resources and services.